sensor_id;sensor_type;location;lat;lon;timestamp;P1;durP1;ratioP1;P2;durP2;ratioP2
17420;SDS011;8828;48.800;9.540;2023-03-15T00:02:23;1.00;;;0.90;;
17420;SDS011;8828;48.800;9.540;2023-03-15T00:04:53;1.00;;;0.87;;
17420;SDS011;8828;48.800;9.540;2023-03-15T00:07:21;1.57;;;1.00;;
17420;SDS011;8828;48.800;9.540;2023-03-15T00:09:51;0.87;;;0.80;;
17420;SDS011;8828;48.800;9.540;2023-03-15T00:12:19;1.37;;;1.10;;
17420;SDS011;8828;48.800;9.540;2023-03-15T00:14:48;2.50;;;1.20;;
17420;SDS011;8828;48.800;9.540;2023-03-15T00:17:16;1.40;;;1.17;;
17420;SDS011;8828;48.800;9.540;2023-03-15T00:19:44;0.90;;;0.80;;
17420;SDS011;8828;48.800;9.540;2023-03-15T00:22:14;0.87;;;0.80;;
17420;SDS011;8828;48.800;9.540;2023-03-15T00:24:42;1.10;;;0.90;;
17420;SDS011;8828;48.800;9.540;2023-03-15T00:27:10;1.00;;;0.80;;
17420;SDS011;8828;48.800;9.540;2023-03-15T00:29:38;1.23;;;0.87;;
17420;SDS011;8828;48.800;9.540;2023-03-15T00:32:06;1.63;;;0.80;;
17420;SDS011;8828;48.800;9.540;2023-03-15T00:34:34;1.57;;;1.30;;
17420;SDS011;8828;48.800;9.540;2023-03-15T00:37:02;2.20;;;1.20;;
17420;SDS011;8828;48.800;9.540;2023-03-15T00:39:31;1.33;;;1.17;;
17420;SDS011;8828;48.800;9.540;2023-03-15T00:42:03;2.40;;;1.03;;
17420;SDS011;8828;48.800;9.540;2023-03-15T00:44:31;1.53;;;0.83;;
17420;SDS011;8828;48.800;9.540;2023-03-15T00:46:59;1.70;;;1.00;;
17420;SDS011;8828;48.800;9.540;2023-03-15T00:49:27;1.30;;;0.90;;
17420;SDS011;8828;48.800;9.540;2023-03-15T00:51:55;1.37;;;1.00;;
17420;SDS011;8828;48.800;9.540;2023-03-15T00:54:23;2.33;;;1.10;;
17420;SDS011;8828;48.800;9.540;2023-03-15T00:56:52;1.77;;;1.17;;
17420;SDS011;8828;48.800;9.540;2023-03-15T00:59:20;3.20;;;1.27;;
17420;SDS011;8828;48.800;9.540;2023-03-15T01:01:48;1.10;;;1.00;;
17420;SDS011;8828;48.800;9.540;2023-03-15T01:04:16;2.33;;;1.43;;
17420;SDS011;8828;48.800;9.540;2023-03-15T01:06:44;1.80;;;1.33;;
17420;SDS011;8828;48.800;9.540;2023-03-15T01:09:12;2.30;;;1.23;;
17420;SDS011;8828;48.800;9.540;2023-03-15T01:11:40;1.20;;;1.10;;
17420;SDS011;8828;48.800;9.540;2023-03-15T01:14:09;1.00;;;0.90;;
17420;SDS011;8828;48.800;9.540;2023-03-15T01:16:37;1.73;;;1.27;;
17420;SDS011;8828;48.800;9.540;2023-03-15T01:19:05;1.33;;;1.10;;
17420;SDS011;8828;48.800;9.540;2023-03-15T01:21:33;2.47;;;1.43;;
17420;SDS011;8828;48.800;9.540;2023-03-15T01:24:01;2.17;;;1.20;;
17420;SDS011;8828;48.800;9.540;2023-03-15T01:26:29;3.67;;;1.80;;
17420;SDS011;8828;48.800;9.540;2023-03-15T01:28:57;3.00;;;1.60;;
17420;SDS011;8828;48.800;9.540;2023-03-15T01:31:27;3.17;;;2.20;;
17420;SDS011;8828;48.800;9.540;2023-03-15T01:33:56;4.00;;;2.13;;
17420;SDS011;8828;48.800;9.540;2023-03-15T01:36:26;3.43;;;2.20;;
17420;SDS011;8828;48.800;9.540;2023-03-15T01:38:54;3.50;;;1.97;;
17420;SDS011;8828;48.800;9.540;2023-03-15T01:41:22;3.10;;;2.20;;
17420;SDS011;8828;48.800;9.540;2023-03-15T01:43:51;3.37;;;2.37;;
17420;SDS011;8828;48.800;9.540;2023-03-15T01:46:21;4.03;;;2.60;;
17420;SDS011;8828;48.800;9.540;2023-03-15T01:48:54;2.80;;;2.20;;
17420;SDS011;8828;48.800;9.540;2023-03-15T01:51:27;3.63;;;2.13;;
17420;SDS011;8828;48.800;9.540;2023-03-15T01:54:02;3.73;;;2.33;;
17420;SDS011;8828;48.800;9.540;2023-03-15T01:56:34;2.67;;;1.93;;
17420;SDS011;8828;48.800;9.540;2023-03-15T01:59:05;3.20;;;2.33;;
17420;SDS011;8828;48.800;9.540;2023-03-15T02:01:39;3.23;;;1.90;;
17420;SDS011;8828;48.800;9.540;2023-03-15T02:04:13;3.47;;;2.03;;
17420;SDS011;8828;48.800;9.540;2023-03-15T02:06:43;3.43;;;2.30;;
17420;SDS011;8828;48.800;9.540;2023-03-15T02:09:13;3.40;;;1.90;;
17420;SDS011;8828;48.800;9.540;2023-03-15T02:11:43;3.53;;;2.23;;
17420;SDS011;8828;48.800;9.540;2023-03-15T02:14:12;5.20;;;2.17;;
17420;SDS011;8828;48.800;9.540;2023-03-15T02:16:40;3.10;;;2.10;;
17420;SDS011;8828;48.800;9.540;2023-03-15T02:19:16;3.67;;;2.47;;
17420;SDS011;8828;48.800;9.540;2023-03-15T02:21:56;4.47;;;2.90;;
17420;SDS011;8828;48.800;9.540;2023-03-15T02:24:32;4.93;;;2.60;;
17420;SDS011;8828;48.800;9.540;2023-03-15T02:27:09;5.50;;;2.43;;
17420;SDS011;8828;48.800;9.540;2023-03-15T02:29:38;4.27;;;2.50;;
17420;SDS011;8828;48.800;9.540;2023-03-15T02:32:07;4.47;;;2.43;;
17420;SDS011;8828;48.800;9.540;2023-03-15T02:34:35;4.90;;;2.50;;
17420;SDS011;8828;48.800;9.540;2023-03-15T02:37:03;4.03;;;2.43;;
17420;SDS011;8828;48.800;9.540;2023-03-15T02:39:31;4.43;;;2.70;;
17420;SDS011;8828;48.800;9.540;2023-03-15T02:41:59;3.93;;;2.67;;
17420;SDS011;8828;48.800;9.540;2023-03-15T02:44:28;4.20;;;2.47;;
17420;SDS011;8828;48.800;9.540;2023-03-15T02:47:00;4.50;;;2.33;;
17420;SDS011;8828;48.800;9.540;2023-03-15T02:49:31;7.63;;;2.47;;
17420;SDS011;8828;48.800;9.540;2023-03-15T02:52:04;4.73;;;2.60;;
17420;SDS011;8828;48.800;9.540;2023-03-15T02:54:32;8.47;;;2.60;;
17420;SDS011;8828;48.800;9.540;2023-03-15T02:57:00;4.17;;;2.83;;
17420;SDS011;8828;48.800;9.540;2023-03-15T02:59:28;3.13;;;2.17;;
17420;SDS011;8828;48.800;9.540;2023-03-15T03:01:56;4.57;;;2.57;;
17420;SDS011;8828;48.800;9.540;2023-03-15T03:04:25;3.63;;;2.27;;
17420;SDS011;8828;48.800;9.540;2023-03-15T03:06:53;4.33;;;2.00;;
17420;SDS011;8828;48.800;9.540;2023-03-15T03:09:21;5.87;;;2.50;;
17420;SDS011;8828;48.800;9.540;2023-03-15T03:11:50;4.43;;;2.40;;
17420;SDS011;8828;48.800;9.540;2023-03-15T03:14:17;6.80;;;2.07;;
17420;SDS011;8828;48.800;9.540;2023-03-15T03:16:48;3.87;;;2.30;;
17420;SDS011;8828;48.800;9.540;2023-03-15T03:19:17;4.00;;;1.93;;
17420;SDS011;8828;48.800;9.540;2023-03-15T03:21:46;2.97;;;1.90;;
17420;SDS011;8828;48.800;9.540;2023-03-15T03:24:14;6.37;;;1.97;;
17420;SDS011;8828;48.800;9.540;2023-03-15T03:26:42;4.43;;;1.83;;
17420;SDS011;8828;48.800;9.540;2023-03-15T03:29:11;4.47;;;1.97;;
17420;SDS011;8828;48.800;9.540;2023-03-15T03:31:42;1.60;;;1.37;;
17420;SDS011;8828;48.800;9.540;2023-03-15T03:34:10;3.53;;;1.77;;
17420;SDS011;8828;48.800;9.540;2023-03-15T03:36:40;4.57;;;2.00;;
17420;SDS011;8828;48.800;9.540;2023-03-15T03:39:10;4.57;;;1.40;;
17420;SDS011;8828;48.800;9.540;2023-03-15T03:41:38;3.97;;;1.93;;
17420;SDS011;8828;48.800;9.540;2023-03-15T03:44:06;3.43;;;1.60;;
17420;SDS011;8828;48.800;9.540;2023-03-15T03:46:34;4.73;;;1.83;;
17420;SDS011;8828;48.800;9.540;2023-03-15T03:49:02;2.63;;;1.50;;
17420;SDS011;8828;48.800;9.540;2023-03-15T03:51:30;2.17;;;1.47;;
17420;SDS011;8828;48.800;9.540;2023-03-15T03:53:59;5.00;;;1.80;;
17420;SDS011;8828;48.800;9.540;2023-03-15T03:56:28;2.70;;;1.30;;
17420;SDS011;8828;48.800;9.540;2023-03-15T03:58:56;2.83;;;1.60;;
17420;SDS011;8828;48.800;9.540;2023-03-15T04:01:24;3.97;;;1.40;;
17420;SDS011;8828;48.800;9.540;2023-03-15T04:03:52;3.67;;;1.70;;
17420;SDS011;8828;48.800;9.540;2023-03-15T04:06:20;3.50;;;1.30;;
17420;SDS011;8828;48.800;9.540;2023-03-15T04:08:48;2.47;;;1.60;;
17420;SDS011;8828;48.800;9.540;2023-03-15T04:11:16;3.20;;;1.20;;
17420;SDS011;8828;48.800;9.540;2023-03-15T04:13:45;3.20;;;1.20;;
17420;SDS011;8828;48.800;9.540;2023-03-15T04:16:14;5.93;;;1.40;;
17420;SDS011;8828;48.800;9.540;2023-03-15T04:18:42;5.80;;;1.27;;
17420;SDS011;8828;48.800;9.540;2023-03-15T04:21:10;4.90;;;1.50;;
17420;SDS011;8828;48.800;9.540;2023-03-15T04:23:38;2.40;;;1.27;;
17420;SDS011;8828;48.800;9.540;2023-03-15T04:26:06;4.07;;;1.33;;
17420;SDS011;8828;48.800;9.540;2023-03-15T04:28:34;3.83;;;1.20;;
17420;SDS011;8828;48.800;9.540;2023-03-15T04:31:04;1.80;;;1.00;;
17420;SDS011;8828;48.800;9.540;2023-03-15T04:33:35;1.33;;;1.03;;
17420;SDS011;8828;48.800;9.540;2023-03-15T04:36:04;8.93;;;1.50;;
17420;SDS011;8828;48.800;9.540;2023-03-15T04:38:32;3.33;;;1.20;;
17420;SDS011;8828;48.800;9.540;2023-03-15T04:41:00;3.10;;;1.43;;
17420;SDS011;8828;48.800;9.540;2023-03-15T04:43:35;2.63;;;1.30;;
17420;SDS011;8828;48.800;9.540;2023-03-15T04:46:05;3.10;;;1.20;;
17420;SDS011;8828;48.800;9.540;2023-03-15T04:48:33;4.40;;;1.10;;
17420;SDS011;8828;48.800;9.540;2023-03-15T04:51:01;3.83;;;1.40;;
17420;SDS011;8828;48.800;9.540;2023-03-15T04:53:29;3.90;;;1.20;;
17420;SDS011;8828;48.800;9.540;2023-03-15T04:55:57;4.33;;;1.47;;
17420;SDS011;8828;48.800;9.540;2023-03-15T04:58:25;3.07;;;1.53;;
17420;SDS011;8828;48.800;9.540;2023-03-15T05:00:53;3.37;;;1.60;;
17420;SDS011;8828;48.800;9.540;2023-03-15T05:03:22;6.47;;;2.00;;
17420;SDS011;8828;48.800;9.540;2023-03-15T05:05:50;3.20;;;2.23;;
17420;SDS011;8828;48.800;9.540;2023-03-15T05:08:18;5.53;;;2.40;;
17420;SDS011;8828;48.800;9.540;2023-03-15T05:10:46;4.87;;;2.57;;
17420;SDS011;8828;48.800;9.540;2023-03-15T05:13:14;8.33;;;2.53;;
17420;SDS011;8828;48.800;9.540;2023-03-15T05:15:44;7.13;;;2.30;;
17420;SDS011;8828;48.800;9.540;2023-03-15T05:18:12;4.83;;;2.80;;
17420;SDS011;8828;48.800;9.540;2023-03-15T05:20:41;2.80;;;1.97;;
17420;SDS011;8828;48.800;9.540;2023-03-15T05:23:09;4.13;;;2.00;;
17420;SDS011;8828;48.800;9.540;2023-03-15T05:25:37;4.03;;;1.87;;
17420;SDS011;8828;48.800;9.540;2023-03-15T05:28:05;4.50;;;1.40;;
17420;SDS011;8828;48.800;9.540;2023-03-15T05:30:32;2.87;;;1.03;;
17420;SDS011;8828;48.800;9.540;2023-03-15T05:33:00;1.60;;;1.30;;
17420;SDS011;8828;48.800;9.540;2023-03-15T05:35:30;3.13;;;1.50;;
17420;SDS011;8828;48.800;9.540;2023-03-15T05:37:59;2.83;;;1.30;;
17420;SDS011;8828;48.800;9.540;2023-03-15T05:40:28;2.67;;;1.60;;
17420;SDS011;8828;48.800;9.540;2023-03-15T05:42:57;5.43;;;1.90;;
17420;SDS011;8828;48.800;9.540;2023-03-15T05:45:25;5.17;;;3.20;;
17420;SDS011;8828;48.800;9.540;2023-03-15T05:47:53;4.13;;;2.07;;
17420;SDS011;8828;48.800;9.540;2023-03-15T05:50:21;5.27;;;1.90;;
17420;SDS011;8828;48.800;9.540;2023-03-15T05:52:49;5.70;;;1.57;;
17420;SDS011;8828;48.800;9.540;2023-03-15T05:55:19;4.67;;;1.50;;
17420;SDS011;8828;48.800;9.540;2023-03-15T05:57:47;3.30;;;1.70;;
17420;SDS011;8828;48.800;9.540;2023-03-15T06:00:16;2.23;;;1.30;;
17420;SDS011;8828;48.800;9.540;2023-03-15T06:02:45;2.57;;;1.00;;
17420;SDS011;8828;48.800;9.540;2023-03-15T06:05:13;6.20;;;1.37;;
17420;SDS011;8828;48.800;9.540;2023-03-15T06:07:41;4.43;;;1.73;;
17420;SDS011;8828;48.800;9.540;2023-03-15T06:10:10;4.13;;;1.80;;
17420;SDS011;8828;48.800;9.540;2023-03-15T06:12:40;3.47;;;1.60;;
17420;SDS011;8828;48.800;9.540;2023-03-15T06:15:10;4.10;;;1.63;;
17420;SDS011;8828;48.800;9.540;2023-03-15T06:17:38;2.63;;;1.17;;
17420;SDS011;8828;48.800;9.540;2023-03-15T06:20:06;3.73;;;1.20;;
17420;SDS011;8828;48.800;9.540;2023-03-15T06:22:35;4.17;;;1.50;;
17420;SDS011;8828;48.800;9.540;2023-03-15T06:25:03;3.23;;;1.43;;
17420;SDS011;8828;48.800;9.540;2023-03-15T06:27:32;5.23;;;2.37;;
17420;SDS011;8828;48.800;9.540;2023-03-15T06:30:01;6.67;;;3.37;;
17420;SDS011;8828;48.800;9.540;2023-03-15T06:32:30;5.53;;;2.20;;
17420;SDS011;8828;48.800;9.540;2023-03-15T06:34:58;6.07;;;1.77;;
17420;SDS011;8828;48.800;9.540;2023-03-15T06:37:26;2.57;;;1.43;;
17420;SDS011;8828;48.800;9.540;2023-03-15T06:40:00;2.70;;;1.50;;
17420;SDS011;8828;48.800;9.540;2023-03-15T06:42:31;4.23;;;1.57;;
17420;SDS011;8828;48.800;9.540;2023-03-15T06:44:59;5.43;;;1.67;;
17420;SDS011;8828;48.800;9.540;2023-03-15T06:47:30;3.80;;;1.60;;
17420;SDS011;8828;48.800;9.540;2023-03-15T06:49:58;5.83;;;1.80;;
17420;SDS011;8828;48.800;9.540;2023-03-15T06:52:26;3.93;;;1.63;;
17420;SDS011;8828;48.800;9.540;2023-03-15T06:54:54;2.40;;;1.20;;
17420;SDS011;8828;48.800;9.540;2023-03-15T06:57:22;1.80;;;1.00;;
17420;SDS011;8828;48.800;9.540;2023-03-15T06:59:50;3.47;;;1.10;;
17420;SDS011;8828;48.800;9.540;2023-03-15T07:02:19;6.77;;;2.00;;
17420;SDS011;8828;48.800;9.540;2023-03-15T07:04:48;6.87;;;2.57;;
17420;SDS011;8828;48.800;9.540;2023-03-15T07:07:16;4.43;;;1.63;;
17420;SDS011;8828;48.800;9.540;2023-03-15T07:09:44;3.23;;;1.80;;
17420;SDS011;8828;48.800;9.540;2023-03-15T07:12:12;3.37;;;1.60;;
17420;SDS011;8828;48.800;9.540;2023-03-15T07:14:40;6.37;;;2.13;;
17420;SDS011;8828;48.800;9.540;2023-03-15T07:17:08;12.00;;;5.50;;
17420;SDS011;8828;48.800;9.540;2023-03-15T07:19:37;14.07;;;5.73;;
17420;SDS011;8828;48.800;9.540;2023-03-15T07:22:22;5.70;;;2.43;;
17420;SDS011;8828;48.800;9.540;2023-03-15T07:24:50;2.83;;;1.83;;
17420;SDS011;8828;48.800;9.540;2023-03-15T07:27:18;4.77;;;2.40;;
17420;SDS011;8828;48.800;9.540;2023-03-15T07:29:46;5.30;;;2.90;;
17420;SDS011;8828;48.800;9.540;2023-03-15T07:32:14;5.20;;;2.67;;
17420;SDS011;8828;48.800;9.540;2023-03-15T07:34:42;4.90;;;2.43;;
17420;SDS011;8828;48.800;9.540;2023-03-15T07:37:10;8.97;;;2.43;;
17420;SDS011;8828;48.800;9.540;2023-03-15T07:39:39;4.93;;;2.40;;
17420;SDS011;8828;48.800;9.540;2023-03-15T07:42:08;3.07;;;2.07;;
17420;SDS011;8828;48.800;9.540;2023-03-15T07:44:36;5.37;;;2.17;;
17420;SDS011;8828;48.800;9.540;2023-03-15T07:47:04;3.10;;;1.60;;
17420;SDS011;8828;48.800;9.540;2023-03-15T07:49:32;4.37;;;1.63;;
17420;SDS011;8828;48.800;9.540;2023-03-15T07:52:00;4.10;;;1.43;;
17420;SDS011;8828;48.800;9.540;2023-03-15T07:54:28;3.60;;;1.27;;
17420;SDS011;8828;48.800;9.540;2023-03-15T07:56:58;2.17;;;1.37;;
17420;SDS011;8828;48.800;9.540;2023-03-15T07:59:26;5.23;;;2.00;;
17420;SDS011;8828;48.800;9.540;2023-03-15T08:01:54;5.13;;;1.70;;
17420;SDS011;8828;48.800;9.540;2023-03-15T08:04:22;3.13;;;1.40;;
17420;SDS011;8828;48.800;9.540;2023-03-15T08:06:50;3.50;;;1.50;;
17420;SDS011;8828;48.800;9.540;2023-03-15T08:09:18;4.67;;;1.30;;
17420;SDS011;8828;48.800;9.540;2023-03-15T08:11:46;2.53;;;1.30;;
17420;SDS011;8828;48.800;9.540;2023-03-15T08:14:15;2.40;;;1.27;;
17420;SDS011;8828;48.800;9.540;2023-03-15T08:16:43;2.77;;;1.23;;
17420;SDS011;8828;48.800;9.540;2023-03-15T08:19:11;1.90;;;1.17;;
17420;SDS011;8828;48.800;9.540;2023-03-15T08:21:39;4.23;;;1.50;;
17420;SDS011;8828;48.800;9.540;2023-03-15T08:24:10;3.25;;;1.20;;
17420;SDS011;8828;48.800;9.540;2023-03-15T08:26:39;3.80;;;1.27;;
17420;SDS011;8828;48.800;9.540;2023-03-15T08:29:08;2.78;;;1.50;;
17420;SDS011;8828;48.800;9.540;2023-03-15T08:31:37;5.22;;;1.42;;
17420;SDS011;8828;48.800;9.540;2023-03-15T08:34:06;3.75;;;1.40;;
17420;SDS011;8828;48.800;9.540;2023-03-15T08:36:34;4.70;;;1.55;;
17420;SDS011;8828;48.800;9.540;2023-03-15T08:39:02;5.53;;;1.60;;
17420;SDS011;8828;48.800;9.540;2023-03-15T08:41:31;4.45;;;1.40;;
17420;SDS011;8828;48.800;9.540;2023-03-15T08:43:59;2.05;;;1.25;;
17420;SDS011;8828;48.800;9.540;2023-03-15T08:46:27;3.70;;;1.13;;
17420;SDS011;8828;48.800;9.540;2023-03-15T08:48:57;4.25;;;1.20;;
17420;SDS011;8828;48.800;9.540;2023-03-15T08:51:25;2.72;;;1.25;;
17420;SDS011;8828;48.800;9.540;2023-03-15T08:53:55;3.67;;;1.20;;
17420;SDS011;8828;48.800;9.540;2023-03-15T08:56:23;3.85;;;1.48;;
17420;SDS011;8828;48.800;9.540;2023-03-15T08:58:51;5.93;;;1.48;;
17420;SDS011;8828;48.800;9.540;2023-03-15T09:01:19;3.60;;;1.10;;
17420;SDS011;8828;48.800;9.540;2023-03-15T09:03:47;6.20;;;1.33;;
17420;SDS011;8828;48.800;9.540;2023-03-15T09:06:17;3.95;;;1.40;;
17420;SDS011;8828;48.800;9.540;2023-03-15T09:08:45;3.63;;;1.13;;
17420;SDS011;8828;48.800;9.540;2023-03-15T09:11:12;3.97;;;1.00;;
17420;SDS011;8828;48.800;9.540;2023-03-15T09:13:40;3.08;;;1.02;;
17420;SDS011;8828;48.800;9.540;2023-03-15T09:16:08;3.35;;;1.15;;
17420;SDS011;8828;48.800;9.540;2023-03-15T09:18:36;2.13;;;1.10;;
17420;SDS011;8828;48.800;9.540;2023-03-15T09:21:05;3.35;;;1.10;;
17420;SDS011;8828;48.800;9.540;2023-03-15T09:23:35;2.58;;;1.30;;
17420;SDS011;8828;48.800;9.540;2023-03-15T09:26:04;2.20;;;1.00;;
17420;SDS011;8828;48.800;9.540;2023-03-15T09:28:32;2.53;;;1.10;;
17420;SDS011;8828;48.800;9.540;2023-03-15T09:31:02;3.58;;;1.25;;
17420;SDS011;8828;48.800;9.540;2023-03-15T09:33:31;1.67;;;0.82;;
17420;SDS011;8828;48.800;9.540;2023-03-15T09:35:59;3.22;;;1.10;;
17420;SDS011;8828;48.800;9.540;2023-03-15T09:38:27;4.50;;;1.20;;
17420;SDS011;8828;48.800;9.540;2023-03-15T09:40:57;2.70;;;1.00;;
17420;SDS011;8828;48.800;9.540;2023-03-15T09:46:23;4.97;;;1.20;;
17420;SDS011;8828;48.800;9.540;2023-03-15T09:48:55;3.67;;;1.15;;
17420;SDS011;8828;48.800;9.540;2023-03-15T09:51:35;3.38;;;1.48;;
17420;SDS011;8828;48.800;9.540;2023-03-15T09:54:09;3.08;;;1.35;;
17420;SDS011;8828;48.800;9.540;2023-03-15T09:56:41;4.22;;;1.48;;
17420;SDS011;8828;48.800;9.540;2023-03-15T09:59:14;2.03;;;0.90;;
17420;SDS011;8828;48.800;9.540;2023-03-15T10:01:47;2.50;;;1.00;;
17420;SDS011;8828;48.800;9.540;2023-03-15T10:04:22;5.25;;;1.30;;
17420;SDS011;8828;48.800;9.540;2023-03-15T10:06:54;3.42;;;1.17;;
17420;SDS011;8828;48.800;9.540;2023-03-15T10:09:23;2.50;;;1.02;;
17420;SDS011;8828;48.800;9.540;2023-03-15T10:12:00;4.38;;;1.00;;
17420;SDS011;8828;48.800;9.540;2023-03-15T10:14:35;2.90;;;1.02;;
17420;SDS011;8828;48.800;9.540;2023-03-15T10:17:18;6.43;;;1.08;;
17420;SDS011;8828;48.800;9.540;2023-03-15T10:19:56;2.78;;;0.98;;
17420;SDS011;8828;48.800;9.540;2023-03-15T10:22:28;2.27;;;1.00;;
17420;SDS011;8828;48.800;9.540;2023-03-15T10:25:01;3.77;;;1.20;;
17420;SDS011;8828;48.800;9.540;2023-03-15T10:27:40;4.90;;;1.33;;
17420;SDS011;8828;48.800;9.540;2023-03-15T10:30:14;3.43;;;0.90;;
17420;SDS011;8828;48.800;9.540;2023-03-15T10:32:44;3.03;;;1.40;;
17420;SDS011;8828;48.800;9.540;2023-03-15T10:35:18;3.97;;;1.30;;
17420;SDS011;8828;48.800;9.540;2023-03-15T10:37:46;2.10;;;1.00;;
17420;SDS011;8828;48.800;9.540;2023-03-15T10:40:15;2.00;;;0.77;;
17420;SDS011;8828;48.800;9.540;2023-03-15T10:43:09;3.47;;;1.20;;
17420;SDS011;8828;48.800;9.540;2023-03-15T10:45:40;3.73;;;1.00;;
17420;SDS011;8828;48.800;9.540;2023-03-15T10:48:08;2.73;;;1.10;;
17420;SDS011;8828;48.800;9.540;2023-03-15T10:50:37;3.10;;;0.97;;
17420;SDS011;8828;48.800;9.540;2023-03-15T10:53:09;2.00;;;0.90;;
17420;SDS011;8828;48.800;9.540;2023-03-15T10:55:45;3.87;;;1.27;;
17420;SDS011;8828;48.800;9.540;2023-03-15T10:58:19;2.63;;;1.50;;
17420;SDS011;8828;48.800;9.540;2023-03-15T11:00:53;6.03;;;2.13;;
17420;SDS011;8828;48.800;9.540;2023-03-15T11:03:27;3.03;;;1.00;;
17420;SDS011;8828;48.800;9.540;2023-03-15T11:05:57;3.43;;;1.23;;
17420;SDS011;8828;48.800;9.540;2023-03-15T11:08:34;3.63;;;1.67;;
17420;SDS011;8828;48.800;9.540;2023-03-15T11:11:03;3.53;;;1.13;;
17420;SDS011;8828;48.800;9.540;2023-03-15T11:13:33;4.50;;;1.20;;
17420;SDS011;8828;48.800;9.540;2023-03-15T11:16:03;5.47;;;0.97;;
17420;SDS011;8828;48.800;9.540;2023-03-15T11:18:36;3.20;;;0.87;;
17420;SDS011;8828;48.800;9.540;2023-03-15T11:21:11;3.27;;;1.30;;
17420;SDS011;8828;48.800;9.540;2023-03-15T11:23:40;2.07;;;1.00;;
17420;SDS011;8828;48.800;9.540;2023-03-15T11:26:12;1.97;;;0.90;;
17420;SDS011;8828;48.800;9.540;2023-03-15T11:28:59;3.23;;;0.90;;
17420;SDS011;8828;48.800;9.540;2023-03-15T11:31:30;1.70;;;0.93;;
17420;SDS011;8828;48.800;9.540;2023-03-15T11:34:01;2.13;;;0.90;;
17420;SDS011;8828;48.800;9.540;2023-03-15T11:36:32;2.70;;;0.97;;
17420;SDS011;8828;48.800;9.540;2023-03-15T11:39:04;1.93;;;1.10;;
17420;SDS011;8828;48.800;9.540;2023-03-15T11:41:36;3.63;;;1.00;;
17420;SDS011;8828;48.800;9.540;2023-03-15T11:44:11;1.00;;;0.77;;
17420;SDS011;8828;48.800;9.540;2023-03-15T11:46:45;2.80;;;1.10;;
17420;SDS011;8828;48.800;9.540;2023-03-15T11:49:16;1.60;;;0.90;;
17420;SDS011;8828;48.800;9.540;2023-03-15T11:51:50;3.90;;;1.10;;
17420;SDS011;8828;48.800;9.540;2023-03-15T11:54:22;3.43;;;1.07;;
17420;SDS011;8828;48.800;9.540;2023-03-15T11:56:55;7.00;;;3.00;;
17420;SDS011;8828;48.800;9.540;2023-03-15T11:59:26;2.87;;;0.97;;
17420;SDS011;8828;48.800;9.540;2023-03-15T12:01:56;2.93;;;1.10;;
17420;SDS011;8828;48.800;9.540;2023-03-15T12:07:23;4.80;;;1.00;;
17420;SDS011;8828;48.800;9.540;2023-03-15T12:09:56;1.90;;;1.03;;
17420;SDS011;8828;48.800;9.540;2023-03-15T12:12:45;5.53;;;1.10;;
17420;SDS011;8828;48.800;9.540;2023-03-15T12:18:19;3.80;;;1.07;;
17420;SDS011;8828;48.800;9.540;2023-03-15T12:20:50;3.10;;;0.73;;
17420;SDS011;8828;48.800;9.540;2023-03-15T12:23:31;2.80;;;0.80;;
17420;SDS011;8828;48.800;9.540;2023-03-15T12:26:05;4.03;;;1.10;;
17420;SDS011;8828;48.800;9.540;2023-03-15T12:28:36;3.40;;;0.87;;
17420;SDS011;8828;48.800;9.540;2023-03-15T12:31:08;3.37;;;0.90;;
17420;SDS011;8828;48.800;9.540;2023-03-15T12:33:43;8.17;;;1.17;;
17420;SDS011;8828;48.800;9.540;2023-03-15T12:36:15;4.07;;;1.40;;
17420;SDS011;8828;48.800;9.540;2023-03-15T12:38:59;2.53;;;1.63;;
17420;SDS011;8828;48.800;9.540;2023-03-15T12:41:33;4.90;;;1.10;;
17420;SDS011;8828;48.800;9.540;2023-03-15T12:44:23;4.40;;;1.00;;
17420;SDS011;8828;48.800;9.540;2023-03-15T12:46:55;2.00;;;0.90;;
17420;SDS011;8828;48.800;9.540;2023-03-15T12:49:28;4.00;;;0.83;;
17420;SDS011;8828;48.800;9.540;2023-03-15T12:52:02;2.33;;;0.80;;
17420;SDS011;8828;48.800;9.540;2023-03-15T12:54:36;1.90;;;0.80;;
17420;SDS011;8828;48.800;9.540;2023-03-15T12:57:09;1.87;;;0.90;;
17420;SDS011;8828;48.800;9.540;2023-03-15T12:59:48;4.13;;;1.33;;
17420;SDS011;8828;48.800;9.540;2023-03-15T13:02:27;4.07;;;1.10;;
17420;SDS011;8828;48.800;9.540;2023-03-15T13:08:05;4.93;;;1.10;;
17420;SDS011;8828;48.800;9.540;2023-03-15T13:10:36;2.50;;;1.00;;
17420;SDS011;8828;48.800;9.540;2023-03-15T13:13:07;4.13;;;1.50;;
17420;SDS011;8828;48.800;9.540;2023-03-15T13:15:42;2.57;;;1.10;;
17420;SDS011;8828;48.800;9.540;2023-03-15T13:18:21;1.83;;;1.23;;
17420;SDS011;8828;48.800;9.540;2023-03-15T13:20:52;2.97;;;1.40;;
17420;SDS011;8828;48.800;9.540;2023-03-15T13:23:31;6.43;;;1.30;;
17420;SDS011;8828;48.800;9.540;2023-03-15T13:28:50;2.53;;;1.53;;
17420;SDS011;8828;48.800;9.540;2023-03-15T13:31:25;4.07;;;1.40;;
17420;SDS011;8828;48.800;9.540;2023-03-15T13:34:09;1.77;;;1.27;;
17420;SDS011;8828;48.800;9.540;2023-03-15T13:36:41;2.70;;;1.40;;
17420;SDS011;8828;48.800;9.540;2023-03-15T13:39:18;2.40;;;1.10;;
17420;SDS011;8828;48.800;9.540;2023-03-15T13:41:55;2.50;;;1.40;;
17420;SDS011;8828;48.800;9.540;2023-03-15T13:44:24;4.30;;;1.33;;
17420;SDS011;8828;48.800;9.540;2023-03-15T13:46:54;1.60;;;1.00;;
17420;SDS011;8828;48.800;9.540;2023-03-15T13:49:29;2.50;;;1.40;;
17420;SDS011;8828;48.800;9.540;2023-03-15T13:51:57;3.23;;;1.40;;
17420;SDS011;8828;48.800;9.540;2023-03-15T13:54:28;3.23;;;1.77;;
17420;SDS011;8828;48.800;9.540;2023-03-15T13:56:59;3.97;;;1.60;;
17420;SDS011;8828;48.800;9.540;2023-03-15T13:59:32;3.13;;;1.50;;
17420;SDS011;8828;48.800;9.540;2023-03-15T14:02:06;1.93;;;1.03;;
17420;SDS011;8828;48.800;9.540;2023-03-15T14:04:40;3.10;;;1.37;;
17420;SDS011;8828;48.800;9.540;2023-03-15T14:07:17;2.47;;;1.40;;
17420;SDS011;8828;48.800;9.540;2023-03-15T14:10:07;11.20;;;5.97;;
17420;SDS011;8828;48.800;9.540;2023-03-15T14:12:47;4.20;;;2.10;;
17420;SDS011;8828;48.800;9.540;2023-03-15T14:15:17;5.00;;;1.87;;
17420;SDS011;8828;48.800;9.540;2023-03-15T14:17:50;1.67;;;1.10;;
17420;SDS011;8828;48.800;9.540;2023-03-15T14:20:26;7.03;;;1.50;;
17420;SDS011;8828;48.800;9.540;2023-03-15T14:22:59;3.03;;;1.57;;
17420;SDS011;8828;48.800;9.540;2023-03-15T14:25:30;2.23;;;1.23;;
17420;SDS011;8828;48.800;9.540;2023-03-15T14:28:02;3.13;;;1.27;;
17420;SDS011;8828;48.800;9.540;2023-03-15T14:30:31;1.80;;;1.20;;
17420;SDS011;8828;48.800;9.540;2023-03-15T14:33:03;2.47;;;1.13;;
17420;SDS011;8828;48.800;9.540;2023-03-15T14:35:41;1.77;;;1.20;;
17420;SDS011;8828;48.800;9.540;2023-03-15T14:38:14;2.53;;;1.43;;
17420;SDS011;8828;48.800;9.540;2023-03-15T14:40:45;2.37;;;1.00;;
17420;SDS011;8828;48.800;9.540;2023-03-15T14:43:13;1.27;;;1.00;;
17420;SDS011;8828;48.800;9.540;2023-03-15T14:45:42;1.83;;;1.10;;
17420;SDS011;8828;48.800;9.540;2023-03-15T14:48:12;2.83;;;1.03;;
17420;SDS011;8828;48.800;9.540;2023-03-15T14:50:43;2.17;;;1.20;;
17420;SDS011;8828;48.800;9.540;2023-03-15T14:53:13;2.90;;;1.20;;
17420;SDS011;8828;48.800;9.540;2023-03-15T14:55:43;3.63;;;1.23;;
17420;SDS011;8828;48.800;9.540;2023-03-15T14:58:12;1.37;;;1.00;;
17420;SDS011;8828;48.800;9.540;2023-03-15T15:00:42;2.87;;;1.07;;
17420;SDS011;8828;48.800;9.540;2023-03-15T15:03:13;5.57;;;1.20;;
17420;SDS011;8828;48.800;9.540;2023-03-15T15:05:46;2.70;;;1.50;;
17420;SDS011;8828;48.800;9.540;2023-03-15T15:08:15;1.67;;;0.90;;
17420;SDS011;8828;48.800;9.540;2023-03-15T15:10:47;4.70;;;1.50;;
17420;SDS011;8828;48.800;9.540;2023-03-15T15:13:17;1.60;;;1.23;;
17420;SDS011;8828;48.800;9.540;2023-03-15T15:15:46;2.77;;;1.00;;
17420;SDS011;8828;48.800;9.540;2023-03-15T15:18:22;4.43;;;1.30;;
17420;SDS011;8828;48.800;9.540;2023-03-15T15:20:52;1.47;;;1.00;;
17420;SDS011;8828;48.800;9.540;2023-03-15T15:23:22;2.37;;;1.20;;
17420;SDS011;8828;48.800;9.540;2023-03-15T15:25:53;2.13;;;0.90;;
17420;SDS011;8828;48.800;9.540;2023-03-15T15:28:23;4.70;;;2.03;;
17420;SDS011;8828;48.800;9.540;2023-03-15T15:31:01;1.47;;;0.90;;
17420;SDS011;8828;48.800;9.540;2023-03-15T15:33:29;0.80;;;0.80;;
17420;SDS011;8828;48.800;9.540;2023-03-15T15:36:00;1.80;;;1.07;;